createdAt,value
2018-06-23T00:01:43.006Z,3.50
2018-06-23T00:04:11.082Z,4.10
2018-06-23T00:06:39.155Z,2.40
2018-06-23T00:09:07.325Z,3.83
2018-06-23T00:11:35.483Z,6.07
2018-06-23T00:14:03.570Z,4.37
2018-06-23T00:16:31.662Z,3.70
2018-06-23T00:18:59.748Z,3.77
2018-06-23T00:21:27.829Z,3.73
2018-06-23T00:23:55.921Z,4.23
2018-06-23T00:26:30.403Z,2.90
2018-06-23T00:28:59.203Z,3.63
2018-06-23T00:31:27.561Z,4.37
2018-06-23T00:33:55.696Z,2.90
2018-06-23T00:36:23.734Z,6.13
2018-06-23T00:38:51.836Z,7.77
2018-06-23T00:41:19.921Z,2.93
2018-06-23T00:43:48.022Z,3.90
2018-06-23T00:46:16.093Z,3.63
2018-06-23T00:48:44.254Z,2.33
2018-06-23T00:51:12.350Z,4.60
2018-06-23T00:53:40.421Z,3.63
2018-06-23T00:56:08.297Z,3.50
2018-06-23T00:58:48.101Z,3.70
2018-06-23T01:01:16.705Z,4.07
2018-06-23T01:03:44.822Z,3.20
2018-06-23T01:06:12.906Z,3.30
2018-06-23T01:08:41.007Z,4.30
2018-06-23T01:11:09.113Z,6.00
2018-06-23T01:13:37.779Z,4.97
2018-06-23T01:16:06.250Z,5.87
2018-06-23T01:18:34.346Z,3.13
2018-06-23T01:21:02.425Z,5.87
2018-06-23T01:23:30.530Z,4.37
2018-06-23T01:25:58.630Z,3.53
2018-06-23T01:28:26.722Z,5.43
2018-06-23T01:30:54.834Z,4.23
2018-06-23T01:33:22.932Z,5.37
2018-06-23T01:35:51.015Z,4.07
2018-06-23T01:38:19.085Z,7.67
2018-06-23T01:40:47.173Z,6.17
2018-06-23T01:43:15.253Z,5.87
2018-06-23T01:45:43.341Z,6.63
2018-06-23T01:48:11.422Z,10.20
2018-06-23T01:50:39.545Z,4.23
2018-06-23T01:53:07.644Z,6.90
2018-06-23T01:55:35.725Z,4.30
2018-06-23T01:58:03.809Z,8.00
2018-06-23T02:00:31.916Z,4.20
2018-06-23T02:02:59.981Z,4.33
2018-06-23T02:05:28.110Z,4.90
2018-06-23T02:07:56.185Z,4.43
2018-06-23T02:10:24.276Z,6.30
2018-06-23T02:12:52.372Z,3.10
2018-06-23T02:15:24.699Z,4.27
2018-06-23T02:17:58.101Z,9.63
2018-06-23T02:20:31.681Z,5.97
2018-06-23T02:25:08.569Z,4.10
2018-06-23T02:27:41.907Z,4.00
2018-06-23T02:30:15.333Z,4.73
2018-06-23T02:32:46.281Z,10.40
2018-06-23T02:35:14.357Z,8.20
2018-06-23T02:37:42.433Z,4.70
2018-06-23T02:40:10.530Z,6.60
2018-06-23T02:42:38.639Z,7.00
2018-06-23T02:45:07.153Z,5.53
2018-06-23T02:47:35.407Z,6.17
2018-06-23T02:50:03.525Z,5.07
2018-06-23T02:52:32.054Z,8.27
2018-06-23T02:55:00.326Z,7.90
2018-06-23T02:57:28.716Z,8.03
2018-06-23T02:59:56.970Z,7.83
2018-06-23T03:02:25.470Z,8.60
2018-06-23T03:04:53.560Z,5.90
2018-06-23T03:07:21.654Z,5.90
2018-06-23T03:09:49.737Z,7.67
2018-06-23T03:12:17.834Z,6.50
2018-06-23T03:14:45.922Z,7.07
2018-06-23T03:17:15.031Z,4.60
2018-06-23T03:19:44.211Z,7.00
2018-06-23T03:22:12.543Z,6.23
2018-06-23T03:24:40.758Z,5.13
2018-06-23T03:27:08.881Z,8.10
2018-06-23T03:29:37.210Z,5.40
2018-06-23T03:32:05.321Z,6.53
2018-06-23T03:34:33.424Z,4.97
2018-06-23T03:37:01.547Z,12.50
2018-06-23T03:39:29.622Z,7.13
2018-06-23T03:41:57.722Z,6.30
2018-06-23T03:44:25.807Z,7.67
2018-06-23T03:46:54.010Z,7.93
2018-06-23T03:49:22.089Z,7.40
2018-06-23T03:51:50.187Z,5.53
2018-06-23T03:54:18.297Z,7.90
2018-06-23T03:56:46.390Z,10.23
2018-06-23T03:59:14.501Z,8.83
2018-06-23T04:01:42.590Z,11.87
2018-06-23T04:04:10.683Z,6.20
2018-06-23T04:06:38.763Z,6.30
2018-06-23T04:09:08.693Z,8.53
2018-06-23T04:11:37.192Z,9.50
2018-06-23T04:14:05.183Z,9.70
2018-06-23T04:16:33.414Z,13.33
2018-06-23T04:19:01.563Z,8.43
2018-06-23T04:21:30.583Z,5.73
2018-06-23T04:23:58.743Z,6.70
2018-06-23T04:26:27.357Z,11.10
2018-06-23T04:28:55.539Z,10.13
2018-06-23T04:31:23.622Z,10.10
2018-06-23T04:33:51.706Z,9.23
2018-06-23T04:36:19.787Z,7.10
2018-06-23T04:38:47.871Z,9.90
2018-06-23T04:41:15.945Z,12.43
2018-06-23T04:43:44.047Z,9.37
2018-06-23T04:46:12.137Z,8.20
2018-06-23T04:48:40.217Z,10.43
2018-06-23T04:51:08.307Z,9.40
2018-06-23T04:53:47.283Z,8.67
2018-06-23T04:56:15.856Z,11.07
2018-06-23T04:58:43.951Z,9.37
2018-06-23T05:01:12.415Z,11.07
2018-06-23T05:03:40.699Z,13.70
2018-06-23T05:06:09.140Z,10.30
2018-06-23T05:08:38.067Z,11.43
2018-06-23T05:11:06.327Z,9.33
2018-06-23T05:13:34.613Z,14.20
2018-06-23T05:16:02.719Z,10.73
2018-06-23T05:18:31.030Z,7.13
2018-06-23T05:20:59.098Z,8.33
2018-06-23T05:23:27.188Z,14.77
2018-06-23T05:25:55.336Z,15.00
2018-06-23T05:28:23.414Z,10.10
2018-06-23T05:30:51.553Z,11.57
2018-06-23T05:33:21.027Z,9.87
2018-06-23T05:35:49.106Z,11.00
2018-06-23T05:38:17.189Z,12.80
2018-06-23T05:40:45.431Z,10.17
2018-06-23T05:43:13.822Z,7.40
2018-06-23T05:45:41.922Z,11.17
2018-06-23T05:48:10.243Z,11.30
2018-06-23T05:50:38.324Z,11.77
2018-06-23T05:53:06.417Z,13.00
2018-06-23T05:55:34.489Z,15.67
2018-06-23T05:58:02.561Z,9.57
2018-06-23T06:00:30.645Z,12.60
2018-06-23T06:02:58.503Z,14.13
2018-06-23T06:05:26.610Z,13.27
2018-06-23T06:07:54.806Z,11.60
2018-06-23T06:10:22.971Z,10.40
2018-06-23T06:12:51.041Z,11.43
2018-06-23T06:15:19.134Z,10.43
2018-06-23T06:17:47.210Z,9.90
2018-06-23T06:20:16.097Z,11.60
2018-06-23T06:22:45.398Z,10.60
2018-06-23T06:25:13.991Z,10.90
2018-06-23T06:27:42.070Z,7.57
2018-06-23T06:30:11.051Z,17.27
2018-06-23T06:32:39.156Z,10.33
2018-06-23T06:35:07.493Z,8.17
2018-06-23T06:37:35.876Z,15.93
2018-06-23T06:40:04.314Z,10.47
2018-06-23T06:42:32.394Z,10.50
2018-06-23T06:45:00.486Z,10.73
2018-06-23T06:47:28.565Z,13.77
2018-06-23T06:49:56.690Z,11.53
2018-06-23T06:52:24.789Z,7.57
2018-06-23T06:54:53.071Z,11.47
2018-06-23T06:57:21.135Z,9.90
2018-06-23T06:59:49.234Z,8.80
2018-06-23T07:02:17.336Z,7.90
2018-06-23T07:04:45.200Z,13.30
2018-06-23T07:07:13.269Z,10.20
2018-06-23T07:09:41.357Z,13.47
2018-06-23T07:12:09.477Z,10.80
2018-06-23T07:14:37.607Z,8.10
2018-06-23T07:17:05.726Z,7.93
2018-06-23T07:19:33.844Z,8.73
2018-06-23T07:22:01.974Z,10.03
2018-06-23T07:24:30.055Z,9.93
2018-06-23T07:26:58.134Z,9.57
2018-06-23T07:29:26.222Z,9.27
2018-06-23T07:31:54.294Z,7.63
2018-06-23T07:34:22.575Z,10.80
2018-06-23T07:36:50.591Z,10.37
2018-06-23T07:39:18.670Z,8.37
2018-06-23T07:41:46.743Z,8.17
2018-06-23T07:44:14.817Z,6.50
2018-06-23T07:46:42.988Z,9.37
2018-06-23T07:49:10.994Z,5.00
2018-06-23T07:51:39.088Z,10.97
2018-06-23T07:54:07.187Z,7.80
2018-06-23T07:56:35.279Z,6.27
2018-06-23T07:59:03.422Z,4.97
2018-06-23T08:01:31.529Z,10.23
2018-06-23T08:03:59.578Z,8.77
2018-06-23T08:06:27.673Z,8.10
2018-06-23T08:08:55.773Z,9.70
2018-06-23T08:11:23.882Z,10.30
2018-06-23T08:13:51.965Z,8.37
2018-06-23T08:16:20.047Z,8.07
2018-06-23T08:18:48.118Z,6.23
2018-06-23T08:21:16.208Z,11.20
2018-06-23T08:23:44.269Z,9.03
2018-06-23T08:26:12.376Z,12.17
2018-06-23T08:28:40.449Z,12.10
2018-06-23T08:31:08.535Z,11.80
2018-06-23T08:33:36.921Z,7.83
2018-06-23T08:36:05.031Z,6.63
2018-06-23T08:38:33.112Z,9.37
2018-06-23T08:41:01.203Z,7.23
2018-06-23T08:43:29.291Z,8.73
2018-06-23T08:45:57.373Z,8.53
2018-06-23T08:48:25.451Z,6.57
2018-06-23T08:50:53.534Z,8.50
2018-06-23T08:53:21.605Z,8.50
2018-06-23T08:55:49.706Z,8.00
2018-06-23T08:58:17.779Z,6.00
2018-06-23T09:00:45.886Z,12.83
2018-06-23T09:03:13.974Z,9.80
2018-06-23T09:05:42.054Z,9.80
2018-06-23T09:08:10.136Z,7.50
2018-06-23T09:10:38.263Z,8.40
2018-06-23T09:13:06.370Z,6.50
2018-06-23T09:15:34.470Z,9.73
2018-06-23T09:18:02.548Z,6.80
2018-06-23T09:20:30.658Z,8.10
2018-06-23T09:22:58.723Z,8.90
2018-06-23T09:25:26.812Z,6.23
2018-06-23T09:27:54.887Z,7.90
2018-06-23T09:30:22.966Z,12.33
2018-06-23T09:32:51.082Z,6.77
2018-06-23T09:35:19.192Z,9.57
2018-06-23T09:37:47.468Z,7.20
2018-06-23T09:40:15.546Z,6.97
2018-06-23T09:42:43.714Z,8.50
2018-06-23T09:45:11.779Z,5.47
2018-06-23T09:47:39.999Z,7.27
2018-06-23T09:50:08.076Z,5.23
2018-06-23T09:52:36.153Z,9.33
2018-06-23T09:55:04.212Z,7.43
2018-06-23T09:57:32.302Z,5.97
2018-06-23T10:00:00.383Z,5.23
2018-06-23T10:02:28.457Z,8.70
2018-06-23T10:04:56.551Z,5.57
2018-06-23T10:07:24.647Z,8.10
2018-06-23T10:09:52.734Z,6.77
2018-06-23T10:12:20.803Z,11.07
2018-06-23T10:14:48.885Z,8.20
2018-06-23T10:17:16.966Z,8.07
2018-06-23T10:19:45.055Z,7.83
2018-06-23T10:22:13.253Z,6.57
2018-06-23T10:24:41.322Z,5.50
2018-06-23T10:27:09.427Z,5.93
2018-06-23T10:29:37.496Z,5.20
2018-06-23T10:32:05.661Z,6.70
2018-06-23T10:34:33.735Z,5.37
2018-06-23T10:37:01.819Z,5.77
2018-06-23T10:39:29.895Z,7.23
2018-06-23T10:41:57.996Z,5.53
2018-06-23T10:44:26.086Z,5.43
2018-06-23T10:46:54.179Z,8.23
2018-06-23T10:49:22.250Z,5.37
2018-06-23T10:51:50.339Z,5.40
2018-06-23T10:54:18.406Z,6.43
2018-06-23T10:56:46.500Z,4.80
2018-06-23T10:59:14.361Z,4.73
2018-06-23T11:01:42.433Z,5.73
2018-06-23T11:04:10.497Z,3.60
2018-06-23T11:06:38.578Z,3.10
2018-06-23T11:09:08.231Z,6.43
2018-06-23T11:11:36.730Z,6.00
2018-06-23T11:14:04.854Z,6.10
2018-06-23T11:16:32.944Z,4.50
2018-06-23T11:19:01.011Z,7.27
2018-06-23T11:21:29.075Z,3.73
2018-06-23T11:23:57.159Z,9.33
2018-06-23T11:26:25.255Z,4.33
2018-06-23T11:28:53.343Z,3.17
2018-06-23T11:31:21.413Z,4.07
2018-06-23T11:33:49.508Z,4.23
2018-06-23T11:36:17.581Z,2.90
2018-06-23T11:38:45.685Z,4.40
2018-06-23T11:41:13.827Z,6.70
2018-06-23T11:43:41.860Z,6.33
2018-06-23T11:46:09.914Z,4.10
2018-06-23T11:48:37.994Z,3.93
2018-06-23T11:51:06.310Z,6.37
2018-06-23T11:53:34.398Z,5.47
2018-06-23T11:56:02.776Z,6.80
2018-06-23T11:58:30.871Z,5.17
2018-06-23T12:00:59.036Z,3.97
2018-06-23T12:03:27.114Z,7.40
2018-06-23T12:05:55.194Z,4.53
2018-06-23T12:08:23.283Z,4.80
2018-06-23T12:10:51.366Z,4.53
2018-06-23T12:13:19.447Z,6.37
2018-06-23T12:15:49.966Z,3.33
2018-06-23T12:18:21.789Z,4.17
2018-06-23T12:20:49.850Z,4.50
2018-06-23T12:23:18.056Z,4.23
2018-06-23T12:25:49.958Z,5.57
2018-06-23T12:28:19.099Z,4.93
2018-06-23T12:30:55.655Z,3.50
2018-06-23T12:33:24.176Z,5.10
2018-06-23T12:35:52.238Z,7.57
2018-06-23T12:38:20.337Z,2.17
2018-06-23T12:40:48.486Z,4.13
2018-06-23T12:43:16.565Z,3.50
2018-06-23T12:45:44.640Z,4.40
2018-06-23T12:48:12.713Z,2.73
2018-06-23T12:50:40.796Z,2.87
2018-06-23T12:53:08.649Z,3.07
2018-06-23T12:55:36.725Z,5.03
2018-06-23T12:58:04.826Z,5.60
2018-06-23T13:00:32.918Z,3.80
2018-06-23T13:03:01.127Z,5.80
2018-06-23T13:05:29.318Z,4.30
2018-06-23T13:07:58.950Z,6.87
2018-06-23T13:10:27.786Z,4.60
2018-06-23T13:12:55.987Z,3.83
2018-06-23T13:15:24.172Z,6.63
2018-06-23T13:17:52.340Z,2.73
2018-06-23T13:20:20.507Z,5.83
2018-06-23T13:22:48.682Z,3.63
2018-06-23T13:25:16.998Z,2.97
2018-06-23T13:27:45.170Z,5.57
2018-06-23T13:30:13.338Z,5.33
2018-06-23T13:32:41.571Z,3.57
2018-06-23T13:35:09.751Z,2.87
2018-06-23T13:37:37.906Z,2.90
2018-06-23T13:40:06.352Z,4.77
2018-06-23T13:42:34.528Z,3.03
2018-06-23T13:45:02.751Z,3.70
2018-06-23T13:47:30.905Z,2.20
2018-06-23T13:49:59.093Z,2.47
2018-06-23T13:52:27.702Z,3.07
2018-06-23T13:54:55.987Z,2.90
2018-06-23T13:57:24.200Z,3.43
2018-06-23T13:59:52.363Z,5.70
2018-06-23T14:02:20.594Z,2.60
2018-06-23T14:04:48.815Z,3.50
2018-06-23T14:07:16.937Z,2.33
2018-06-23T14:09:45.216Z,5.60
2018-06-23T14:12:13.455Z,3.03
2018-06-23T14:14:41.690Z,3.40
2018-06-23T14:17:09.871Z,3.73
2018-06-23T14:19:40.605Z,5.43
2018-06-23T14:22:08.905Z,6.00
2018-06-23T14:24:37.095Z,2.57
2018-06-23T14:27:05.247Z,6.70
2018-06-23T14:29:33.177Z,2.30
2018-06-23T14:32:01.762Z,2.60
2018-06-23T14:34:29.537Z,4.60
2018-06-23T14:36:57.654Z,3.03
2018-06-23T14:39:25.809Z,4.37
2018-06-23T14:41:53.930Z,2.47
2018-06-23T14:44:22.114Z,3.83
2018-06-23T14:46:50.257Z,3.67
2018-06-23T14:49:21.695Z,2.70
2018-06-23T14:51:49.839Z,4.47
2018-06-23T14:54:18.035Z,4.73
2018-06-23T14:56:46.165Z,2.83
2018-06-23T14:59:14.607Z,4.70
2018-06-23T15:01:43.962Z,5.07
2018-06-23T15:04:15.071Z,4.60
2018-06-23T15:06:43.268Z,2.67
2018-06-23T15:09:22.897Z,2.97
2018-06-23T15:12:02.545Z,2.30
2018-06-23T15:14:30.782Z,5.10
2018-06-23T15:16:59.023Z,2.93
2018-06-23T15:19:27.252Z,4.93
2018-06-23T15:21:55.657Z,4.13
2018-06-23T15:24:24.031Z,2.60
2018-06-23T15:26:52.284Z,2.83
2018-06-23T15:29:20.601Z,2.70
2018-06-23T15:31:48.826Z,5.87
2018-06-23T15:34:17.136Z,8.30
2018-06-23T15:36:45.229Z,3.23
2018-06-23T15:39:13.300Z,2.70
2018-06-23T15:41:41.373Z,2.43
2018-06-23T15:44:09.465Z,2.07
2018-06-23T15:46:37.551Z,2.60
2018-06-23T15:49:05.623Z,4.47
2018-06-23T15:51:33.717Z,6.80
2018-06-23T15:54:01.791Z,3.83
2018-06-23T15:56:29.886Z,2.50
2018-06-23T15:58:57.982Z,2.57
2018-06-23T16:01:26.063Z,5.17
2018-06-23T16:03:54.150Z,7.33
2018-06-23T16:06:22.591Z,2.50
2018-06-23T16:08:50.812Z,4.97
2018-06-23T16:11:18.861Z,2.50
2018-06-23T16:13:46.938Z,3.00
2018-06-23T16:16:15.018Z,3.00
2018-06-23T16:18:43.352Z,2.67
2018-06-23T16:21:11.439Z,6.20
2018-06-23T16:23:39.513Z,2.73
2018-06-23T16:26:07.619Z,2.47
2018-06-23T16:28:35.715Z,2.33
2018-06-23T16:31:03.778Z,2.63
2018-06-23T16:33:31.863Z,4.60
2018-06-23T16:35:59.959Z,2.70
2018-06-23T16:38:28.033Z,2.73
2018-06-23T16:40:56.257Z,3.50
2018-06-23T16:43:24.130Z,2.80
2018-06-23T16:45:52.251Z,3.80
2018-06-23T16:48:20.331Z,3.33
2018-06-23T16:50:48.409Z,3.33
2018-06-23T16:53:16.496Z,2.90
2018-06-23T16:55:44.570Z,3.13
2018-06-23T16:58:12.664Z,2.70
2018-06-23T17:00:47.465Z,5.10
2018-06-23T17:03:15.562Z,3.07
2018-06-23T17:05:43.646Z,3.53
2018-06-23T17:08:12.046Z,2.57
2018-06-23T17:10:40.113Z,4.30
2018-06-23T17:13:08.207Z,4.60
2018-06-23T17:15:36.273Z,2.97
2018-06-23T17:18:04.145Z,3.00
2018-06-23T17:20:32.217Z,5.63
2018-06-23T17:23:00.293Z,3.47
2018-06-23T17:25:28.391Z,2.77
2018-06-23T17:27:56.482Z,3.43
2018-06-23T17:30:24.603Z,3.30
2018-06-23T17:32:52.699Z,3.90
2018-06-23T17:35:20.775Z,2.73
2018-06-23T17:37:48.862Z,3.13
2018-06-23T17:40:16.948Z,3.80
2018-06-23T17:42:45.034Z,4.43
2018-06-23T17:45:13.329Z,4.60
2018-06-23T17:47:41.397Z,4.70
2018-06-23T17:50:09.669Z,3.57
2018-06-23T17:52:38.241Z,3.03
2018-06-23T17:55:06.586Z,3.13
2018-06-23T17:57:35.239Z,3.03
2018-06-23T18:00:03.442Z,2.80
2018-06-23T18:02:31.288Z,4.03
2018-06-23T18:04:59.383Z,1.90
2018-06-23T18:07:27.463Z,3.67
2018-06-23T18:09:55.554Z,2.67
2018-06-23T18:12:23.631Z,2.83
2018-06-23T18:14:51.739Z,3.10
2018-06-23T18:17:19.878Z,2.20
2018-06-23T18:19:47.958Z,3.03
2018-06-23T18:22:16.041Z,2.47
2018-06-23T18:24:44.105Z,4.53
2018-06-23T18:27:12.211Z,3.03
2018-06-23T18:29:40.327Z,1.97
2018-06-23T18:32:08.556Z,2.30
2018-06-23T18:34:36.633Z,5.83
2018-06-23T18:37:04.828Z,2.83
2018-06-23T18:39:32.907Z,3.47
2018-06-23T18:42:00.987Z,2.93
2018-06-23T18:44:29.059Z,4.60
2018-06-23T18:46:57.138Z,2.60
2018-06-23T18:49:25.219Z,2.30
2018-06-23T18:51:53.309Z,3.00
2018-06-23T18:54:21.375Z,4.93
2018-06-23T18:56:49.454Z,3.43
2018-06-23T18:59:17.569Z,3.37
2018-06-23T19:01:45.641Z,3.23
2018-06-23T19:04:13.718Z,2.53
2018-06-23T19:06:41.798Z,4.33
2018-06-23T19:09:10.681Z,3.10
2018-06-23T19:11:38.900Z,4.37
2018-06-23T19:14:07.151Z,2.63
2018-06-23T19:16:35.414Z,3.23
2018-06-23T19:19:03.494Z,3.53
2018-06-23T19:21:31.571Z,2.60
2018-06-23T19:23:59.641Z,3.47
2018-06-23T19:26:27.727Z,4.50
2018-06-23T19:28:55.825Z,2.77
2018-06-23T19:31:23.744Z,2.53
2018-06-23T19:33:51.825Z,2.80
2018-06-23T19:36:19.905Z,2.90
2018-06-23T19:38:47.991Z,5.03
2018-06-23T19:41:22.966Z,3.67
2018-06-23T19:43:51.065Z,2.70
2018-06-23T19:46:19.140Z,3.53
2018-06-23T19:48:47.227Z,3.30
2018-06-23T19:51:15.999Z,3.47
2018-06-23T19:53:44.112Z,4.73
2018-06-23T19:56:12.211Z,3.40
2018-06-23T19:58:40.299Z,2.90
2018-06-23T20:01:08.671Z,4.17
2018-06-23T20:03:37.175Z,3.47
2018-06-23T20:06:05.589Z,3.00
2018-06-23T20:08:33.795Z,2.90
2018-06-23T20:11:01.871Z,5.73
2018-06-23T20:13:29.970Z,3.17
2018-06-23T20:15:58.146Z,4.17
2018-06-23T20:18:26.238Z,3.70
2018-06-23T20:20:54.340Z,4.27
2018-06-23T20:23:22.867Z,3.50
2018-06-23T20:25:50.959Z,4.90
2018-06-23T20:28:19.925Z,3.10
2018-06-23T20:30:48.489Z,3.53
2018-06-23T20:33:16.598Z,3.67
2018-06-23T20:35:44.674Z,4.10
2018-06-23T20:38:12.770Z,3.33
2018-06-23T20:40:40.866Z,3.97
2018-06-23T20:43:08.945Z,7.87
2018-06-23T20:45:37.035Z,3.40
2018-06-23T20:48:05.114Z,5.90
2018-06-23T20:50:33.199Z,3.63
2018-06-23T20:53:01.205Z,6.73
2018-06-23T20:55:30.339Z,3.20
2018-06-23T20:57:58.416Z,3.90
2018-06-23T21:00:26.525Z,4.37
2018-06-23T21:02:54.606Z,3.43
2018-06-23T21:05:22.750Z,5.10
2018-06-23T21:07:50.813Z,4.30
2018-06-23T21:10:30.238Z,3.83
2018-06-23T21:12:58.309Z,7.83
2018-06-23T21:15:26.415Z,7.00
2018-06-23T21:17:54.599Z,3.70
2018-06-23T21:20:23.027Z,3.23
2018-06-23T21:22:51.103Z,4.83
2018-06-23T21:25:19.195Z,3.30
2018-06-23T21:27:47.286Z,4.10
2018-06-23T21:30:15.425Z,5.20
2018-06-23T21:32:43.519Z,5.53
2018-06-23T21:35:11.619Z,3.83
2018-06-23T21:37:40.123Z,3.93
2018-06-23T21:40:08.000Z,3.90
2018-06-23T21:42:36.018Z,4.20
2018-06-23T21:45:04.137Z,3.60
2018-06-23T21:47:32.218Z,3.80
2018-06-23T21:50:00.309Z,3.90
2018-06-23T21:52:28.394Z,4.00
2018-06-23T21:54:56.481Z,4.27
2018-06-23T21:57:24.575Z,4.23
2018-06-23T21:59:52.650Z,4.43
2018-06-23T22:02:20.733Z,3.27
2018-06-23T22:04:48.825Z,3.53
2018-06-23T22:07:16.915Z,4.87
2018-06-23T22:09:44.830Z,4.93
2018-06-23T22:12:12.922Z,4.10
2018-06-23T22:14:41.002Z,3.90
2018-06-23T22:17:09.363Z,5.90
2018-06-23T22:19:37.452Z,4.53
2018-06-23T22:22:05.542Z,5.40
2018-06-23T22:24:33.621Z,5.73
2018-06-23T22:27:01.717Z,5.20
2018-06-23T22:29:29.918Z,6.07
2018-06-23T22:31:57.949Z,5.63
2018-06-23T22:34:26.033Z,4.17
2018-06-23T22:36:54.102Z,4.40
2018-06-23T22:39:22.178Z,4.03
2018-06-23T22:41:50.446Z,5.47
2018-06-23T22:44:18.529Z,6.10
2018-06-23T22:46:52.975Z,5.23
2018-06-23T22:49:21.057Z,4.97
2018-06-23T22:51:49.141Z,5.50
2018-06-23T22:54:17.218Z,5.63
2018-06-23T22:56:45.310Z,7.33
2018-06-23T22:59:13.394Z,6.07
2018-06-23T23:01:41.498Z,4.93
2018-06-23T23:04:09.664Z,5.30
2018-06-23T23:06:37.759Z,7.50
2018-06-23T23:09:07.502Z,11.90
2018-06-23T23:11:35.590Z,6.63
2018-06-23T23:14:03.791Z,5.73
2018-06-23T23:16:31.883Z,7.17
2018-06-23T23:18:59.961Z,4.77
2018-06-23T23:21:28.045Z,4.30
2018-06-23T23:23:56.138Z,4.47
2018-06-23T23:26:24.254Z,4.43
2018-06-23T23:28:52.339Z,4.20
2018-06-23T23:31:20.465Z,6.57
2018-06-23T23:33:48.541Z,5.07
2018-06-23T23:36:16.630Z,4.27
2018-06-23T23:38:44.723Z,4.30
2018-06-23T23:41:12.809Z,4.80
2018-06-23T23:43:40.678Z,3.60
2018-06-23T23:46:08.769Z,4.43
2018-06-23T23:48:36.863Z,5.87
2018-06-23T23:51:04.979Z,4.57
2018-06-23T23:53:33.130Z,4.30
2018-06-23T23:56:01.258Z,4.50
2018-06-23T23:58:29.583Z,3.40
